Time;durP1;ratioP1;P1;durP2;ratioP2;P2;SDS_P1;SDS_P2;PMS_P1;PMS_P2;Temp;Humidity;BMP_temperature;BMP_pressure;BME280_temperature;BME280_humidity;BME280_pressure;Samples;Min_cycle;Max_cycle;Signal;HPM_P1;HPM_P2
2022/03/02 00:02:07;;;;;;;121.57;54.77;;;;;;;-4.32;61.37;98194.85;1605193;87;26365;-82
2022/03/02 00:04:43;;;;;;;123.20;51.50;;;;;;;-4.34;61.36;98186.20;1606688;88;25827;-83
2022/03/02 00:09:40;;;;;;;;;;;;;;;-4.47;61.33;98178.74;1572168;91;25670;-82
2022/03/02 00:12:12;;;;;;;136.18;59.38;;;;;;;-4.59;61.45;98174.27;1581411;89;27220;-85
2022/03/02 00:14:49;;;;;;;127.27;55.33;;;;;;;-4.70;61.59;98174.92;1607432;89;25768;-83
2022/03/02 00:17:26;;;;;;;136.12;56.60;;;;;;;-4.70;61.85;98170.98;1606730;89;25305;-82
2022/03/02 00:20:16;;;;;;;129.00;56.33;;;;;;;-4.69;61.96;98163.92;1584440;90;25728;-86
2022/03/02 00:22:39;;;;;;;110.70;48.50;;;;;;;-4.69;62.05;98162.60;1609371;87;25194;-82
2022/03/02 00:27:59;;;;;;;118.80;48.73;;;;;;;-4.71;61.99;98156.95;1618317;87;25588;-82
2022/03/02 00:30:55;;;;;;;116.37;51.65;;;;;;;-4.72;62.13;98155.30;1616484;86;25724;-82
2022/03/02 00:33:32;;;;;;;117.47;50.17;;;;;;;-4.74;62.24;98150.59;1643651;85;25292;-82
2022/03/02 00:36:06;;;;;;;111.88;49.55;;;;;;;-4.76;62.25;98151.16;1653612;86;25253;-82
2022/03/02 00:38:35;;;;;;;108.30;47.65;;;;;;;-4.83;62.13;98156.93;1665790;86;25638;-81
2022/03/02 00:41:23;;;;;;;110.95;47.88;;;;;;;-4.92;62.35;98153.06;1666295;86;25758;-81
2022/03/02 00:43:53;;;;;;;105.95;45.48;;;;;;;-4.90;62.47;98152.50;1667310;85;32090;-81
2022/03/02 00:46:33;;;;;;;;;;;;;;;;;;;;;
2022/03/02 00:49:01;;;;;;;101.33;43.80;;;;;;;-4.92;62.49;98150.44;1666317;85;25311;-81
2022/03/02 00:51:38;;;;;;;105.90;45.78;;;;;;;-4.94;62.48;98151.00;1643850;86;25923;-81
2022/03/02 00:54:15;;;;;;;122.02;50.78;;;;;;;-4.97;62.58;98145.95;1666866;86;25411;-82
2022/03/02 00:56:41;;;;;;;125.90;51.65;;;;;;;-4.99;62.56;98137.30;1665942;86;25567;-82
2022/03/02 01:02:09;;;;;;;130.87;54.08;;;;;;;-5.01;62.60;98140.49;1660215;85;25581;-81
2022/03/02 01:04:50;;;;;;;125.00;52.08;;;;;;;-5.02;62.62;98141.44;1673593;84;27953;-81
2022/03/02 01:10:19;;;;;;;118.57;48.70;;;;;;;-5.07;62.79;98130.84;1674650;85;25342;-82
2022/03/02 01:12:50;;;;;;;133.57;53.85;;;;;;;-5.11;62.71;98123.59;1674396;85;25777;-82
2022/03/02 01:15:19;;;;;;;128.55;55.65;;;;;;;-5.10;62.70;98127.92;1674570;84;25803;-84
2022/03/02 01:17:57;;;;;;;111.35;50.10;;;;;;;-5.13;62.70;98120.21;1651655;85;27450;-81
2022/03/02 01:20:29;;;;;;;122.92;49.67;;;;;;;-5.31;62.94;98102.45;1671362;84;25352;-81
2022/03/02 01:23:19;;;;;;;111.65;49.53;;;;;;;-5.19;63.06;98124.06;1731402;79;25652;-84
2022/03/02 01:25:47;;;;;;;124.12;53.42;;;;;;;-5.21;63.27;98125.13;1795493;79;25743;-82
2022/03/02 01:28:25;;;;;;;145.95;58.73;;;;;;;-5.21;63.17;98117.23;1761485;79;25508;-84
2022/03/02 01:31:00;;;;;;;151.18;59.70;;;;;;;-5.30;63.01;98118.63;1765833;79;27487;-83
2022/03/02 01:33:37;;;;;;;145.25;59.45;;;;;;;-5.30;63.18;98125.67;1790193;79;25275;-84
2022/03/02 01:36:22;;;;;;;138.25;55.52;;;;;;;-5.31;63.34;98122.70;1728929;79;25492;-82
2022/03/02 01:38:52;;;;;;;130.40;54.60;;;;;;;-5.30;63.48;98122.57;1799070;79;25681;-84
2022/03/02 01:41:49;;;;;;;133.57;56.05;;;;;;;-5.34;63.43;98120.25;1798797;79;25179;-84
2022/03/02 01:44:06;;;;;;;123.40;54.45;;;;;;;-5.34;63.48;98116.30;1785592;79;26222;-84
2022/03/02 01:46:48;;;;;;;155.30;70.42;;;;;;;-5.40;63.44;98112.25;1799052;79;25525;-81
2022/03/02 01:49:18;;;;;;;150.85;61.20;;;;;;;-5.50;63.34;98108.04;1776344;79;25256;-83
2022/03/02 01:52:06;;;;;;;153.62;62.15;;;;;;;-5.55;63.62;98106.15;1799539;78;25668;-82
2022/03/02 01:54:36;;;;;;;143.25;57.90;;;;;;;-5.54;63.77;98106.99;1731606;79;25410;-82
2022/03/02 01:57:15;;;;;;;140.95;57.08;;;;;;;-5.53;63.93;98104.27;1798566;79;25957;-84
2022/03/02 02:00:06;;;;;;;135.12;56.55;;;;;;;-5.50;64.03;98099.30;1755481;79;25264;-81
2022/03/02 02:02:33;;;;;;;138.37;56.68;;;;;;;-5.49;64.12;98099.20;1792221;79;25562;-84
2022/03/02 02:05:04;;;;;;;123.82;54.00;;;;;;;-5.46;64.19;98104.28;1765891;79;25183;-84
2022/03/02 02:10:21;;;;;;;115.85;51.23;;;;;;;-5.38;64.17;98102.95;1764175;79;27390;-85
2022/03/02 02:12:52;;;;;;;107.80;49.95;;;;;;;-5.38;64.22;98094.59;1798206;79;25683;-84
2022/03/02 02:15:34;;;;;;;;;;;;;;;;;;;;;
2022/03/02 02:18:02;;;;;;;94.45;43.70;;;;;;;-5.33;64.29;98091.67;1796371;79;25755;-81
2022/03/02 02:20:37;;;;;;;88.75;42.85;;;;;;;-5.31;64.32;98091.12;1795101;79;26245;-81
2022/03/02 02:23:13;;;;;;;87.53;40.60;;;;;;;-5.29;64.38;98093.16;1799396;78;27341;-81
2022/03/02 02:25:50;;;;;;;89.67;41.53;;;;;;;-5.26;64.44;98091.66;1799810;79;25299;-82
2022/03/02 02:28:35;;;;;;;;;;;;;;;;;;;;;
2022/03/02 02:31:03;;;;;;;99.22;43.42;;;;;;;-5.20;64.49;98081.59;1793046;79;25562;-83
2022/03/02 02:33:38;;;;;;;93.17;43.52;;;;;;;-5.23;64.43;98087.05;1780749;79;25240;-82
2022/03/02 02:36:07;;;;;;;86.78;42.88;;;;;;;-5.24;64.59;98091.09;1766184;79;27362;-85
2022/03/02 02:38:59;;;;;;;88.45;43.08;;;;;;;-5.21;64.65;98085.17;1799288;79;25245;-82
2022/03/02 02:41:24;;;;;;;92.97;43.35;;;;;;;-5.17;64.69;98081.37;1816400;78;25541;-82
2022/03/02 02:44:02;;;;;;;90.57;44.15;;;;;;;-5.14;64.70;98084.30;1723099;80;25445;-82
2022/03/02 02:49:20;;;;;;;102.45;45.95;;;;;;;-5.18;64.73;98077.53;1765239;79;26792;-81
2022/03/02 02:52:06;;;;;;;102.90;47.40;;;;;;;-5.19;64.74;98070.60;1797099;79;25173;-82
2022/03/02 02:54:35;;;;;;;101.25;46.92;;;;;;;-5.23;64.76;98071.73;1707488;83;25480;-81
2022/03/02 02:59:47;;;;;;;98.95;47.00;;;;;;;-5.20;65.08;98066.28;1721634;83;25222;-82
2022/03/02 03:02:23;;;;;;;;;;;;;;;-5.20;65.12;98067.13;1730535;83;26140;-86
2022/03/02 03:04:52;;;;;;;98.97;45.63;;;;;;;-5.27;65.22;98068.91;1727931;82;25682;-81
2022/03/02 03:07:28;;;;;;;101.75;45.10;;;;;;;-5.27;65.13;98061.02;1713705;83;25484;-81
2022/03/02 03:10:06;;;;;;;95.87;41.92;;;;;;;-5.22;65.15;98061.58;1701459;83;25611;-81
2022/03/02 03:12:54;;;;;;;84.92;42.43;;;;;;;-5.17;65.22;98070.01;1675129;84;25637;-84
2022/03/02 03:15:25;;;;;;;81.70;40.85;;;;;;;-5.15;65.19;98072.92;1693507;84;25705;-83
2022/03/02 03:17:58;;;;;;;85.05;41.02;;;;;;;-5.14;65.25;98077.25;1699384;84;25453;-85
2022/03/02 03:20:33;;;;;;;61.53;30.55;;;;;;;-5.13;65.15;98073.67;1699473;84;25565;-83
2022/03/02 03:23:06;;;;;;;85.00;39.85;;;;;;;-5.11;65.33;98072.27;1692831;84;25577;-85
2022/03/02 03:25:35;;;;;;;78.55;39.63;;;;;;;-5.12;65.36;98071.89;1699552;84;25205;-84
2022/03/02 03:28:13;;;;;;;90.10;42.15;;;;;;;-5.11;65.29;98072.27;1699240;83;27365;-81
2022/03/02 03:30:46;;;;;;;85.53;42.03;;;;;;;-5.09;65.27;98069.06;1669868;83;25290;-85
2022/03/02 03:33:18;;;;;;;85.07;42.53;;;;;;;-5.08;65.28;98070.76;1691799;83;25511;-83
2022/03/02 03:35:50;;;;;;;;;;;;;;;-5.08;65.29;98069.44;1696638;83;25535;-85
2022/03/02 03:38:32;;;;;;;84.10;39.98;;;;;;;-5.05;65.50;98069.69;1693289;83;25773;-82
2022/03/02 03:41:10;;;;;;;;;;;;;;;-5.07;65.41;98060.57;1693255;83;26111;-86
2022/03/02 03:43:40;;;;;;;88.25;43.08;;;;;;;-5.13;65.38;98060.98;1661600;86;25494;-85
2022/03/02 03:46:12;;;;;;;86.17;42.20;;;;;;;-5.18;65.38;98061.73;1692344;83;25257;-81
2022/03/02 03:48:42;;;;;;;90.32;41.05;;;;;;;-5.18;65.44;98059.10;1692361;84;26131;-85
2022/03/02 03:51:17;;;;;;;89.40;42.70;;;;;;;-5.17;65.51;98062.11;1720524;80;25223;-85
2022/03/02 03:53:50;;;;;;;85.07;41.45;;;;;;;-5.17;65.48;98058.16;1716806;82;27453;-85
2022/03/02 03:56:25;;;;;;;86.72;41.75;;;;;;;-5.21;65.49;98057.53;1744834;80;25239;-84
2022/03/02 03:59:04;;;;;;;96.72;42.70;;;;;;;-5.26;65.45;98056.13;1742262;81;25505;-84
2022/03/02 04:01:38;;;;;;;91.22;40.30;;;;;;;-5.32;65.54;98058.69;1740296;82;25516;-85
2022/03/02 04:04:13;;;;;;;84.25;41.55;;;;;;;-5.32;65.57;98056.53;1741430;81;25178;-84
2022/03/02 04:06:49;;;;;;;81.95;39.50;;;;;;;-5.29;65.62;98051.05;1757985;81;27409;-84
2022/03/02 04:09:16;;;;;;;80.25;38.20;;;;;;;-5.29;65.62;98045.78;1758193;79;25189;-84
2022/03/02 04:11:50;;;;;;;85.65;38.90;;;;;;;-5.34;65.59;98042.63;1758227;81;25575;-85
2022/03/02 04:14:23;;;;;;;83.85;39.95;;;;;;;-5.34;65.66;98036.89;1748376;81;25746;-81
2022/03/02 04:17:12;;;;;;;83.35;37.28;;;;;;;-5.38;65.50;98041.12;1727644;81;25614;-85
2022/03/02 04:19:38;;;;;;;79.60;39.48;;;;;;;-5.49;65.44;98040.02;1754833;80;27327;-82
2022/03/02 04:22:11;;;;;;;82.72;39.20;;;;;;;-5.56;65.65;98036.09;1756930;81;25608;-84
2022/03/02 04:24:47;;;;;;;88.37;41.25;;;;;;;-5.57;65.84;98038.34;1733188;81;25448;-85
2022/03/02 04:27:16;;;;;;;80.92;38.65;;;;;;;-5.54;65.94;98038.59;1797036;79;25505;-84
2022/03/02 04:29:48;;;;;;;79.30;41.35;;;;;;;-5.50;66.12;98037.00;1771234;79;25729;-80
2022/03/02 04:32:26;;;;;;;89.55;42.43;;;;;;;-5.47;66.18;98035.97;1796990;79;25807;-85
2022/03/02 04:34:55;;;;;;;84.75;41.68;;;;;;;-5.43;66.26;98040.58;1797979;79;25469;-84
2022/03/02 04:37:26;;;;;;;76.20;39.27;;;;;;;-5.40;66.22;98038.58;1798283;79;25433;-85
2022/03/02 04:39:55;;;;;;;66.67;31.27;;;;;;;-5.58;66.27;98018.24;1798356;79;25614;-85
2022/03/02 04:42:29;;;;;;;89.95;38.20;;;;;;;-5.41;66.37;98042.62;1797558;79;25524;-84
2022/03/02 04:45:11;;;;;;;76.35;38.35;;;;;;;-5.37;66.34;98045.44;1796986;78;26008;-85
2022/03/02 04:47:39;;;;;;;76.37;38.53;;;;;;;-5.31;66.34;98047.70;1761470;79;25479;-85
2022/03/02 04:50:12;;;;;;;71.42;36.75;;;;;;;-5.26;66.29;98041.65;1768386;80;26006;-86
2022/03/02 04:52:46;;;;;;;82.82;37.85;;;;;;;-5.41;66.31;98018.47;1740606;80;25205;-83
2022/03/02 04:55:22;;;;;;;89.30;39.65;;;;;;;-5.26;66.29;98034.60;1797831;79;25158;-84
2022/03/02 04:58:05;;;;;;;76.82;39.98;;;;;;;-5.27;66.38;98034.22;1792009;78;26723;-80
2022/03/02 05:00:43;;;;;;;74.58;37.98;;;;;;;-5.30;66.38;98028.30;1797585;79;25227;-84
2022/03/02 05:03:12;;;;;;;84.35;38.40;;;;;;;-5.30;66.40;98025.67;1796759;79;25159;-83
2022/03/02 05:05:51;;;;;;;87.82;42.25;;;;;;;-5.28;66.44;98034.32;1777503;79;25187;-83
2022/03/02 05:08:22;;;;;;;89.87;43.50;;;;;;;-5.26;66.45;98037.70;1712095;81;25646;-81
2022/03/02 05:11:00;;;;;;;93.35;44.00;;;;;;;-5.26;66.43;98029.81;1787017;79;28106;-80
2022/03/02 05:13:30;;;;;;;90.38;43.08;;;;;;;-5.29;66.43;98033.47;1785892;79;25780;-81
2022/03/02 05:16:03;;;;;;;90.30;45.75;;;;;;;-5.29;66.41;98029.53;1786483;79;25490;-83
2022/03/02 05:18:44;;;;;;;99.52;47.20;;;;;;;-5.24;66.39;98025.30;1753819;81;25443;-85
2022/03/02 05:21:21;;;;;;;91.20;45.28;;;;;;;-5.25;66.40;98023.60;1786743;79;25183;-81
2022/03/02 05:23:51;;;;;;;91.67;44.35;;;;;;;-5.28;66.42;98027.27;1746635;80;25954;-80
2022/03/02 05:26:25;;;;;;;90.67;42.50;;;;;;;-5.32;66.40;98033.70;1757685;80;25482;-85
2022/03/02 05:29:07;;;;;;;97.70;47.58;;;;;;;-5.38;66.43;98032.75;1785495;78;25196;-85
2022/03/02 05:31:40;;;;;;;108.37;48.60;;;;;;;-5.42;66.51;98027.30;1790003;79;25629;-85
2022/03/02 05:34:10;;;;;;;110.68;49.42;;;;;;;-5.47;66.61;98032.88;1790012;80;25192;-84
2022/03/02 05:36:52;;;;;;;125.35;55.35;;;;;;;-5.48;66.67;98033.81;1789358;80;25833;-86
2022/03/02 05:39:22;;;;;;;115.05;53.98;;;;;;;-5.46;66.73;98033.72;1786388;79;25593;-85
2022/03/02 05:42:00;;;;;;;129.63;53.80;;;;;;;-5.46;66.83;98029.30;1785393;79;25178;-82
2022/03/02 05:44:46;;;;;;;127.25;54.83;;;;;;;-5.45;66.87;98015.21;1730639;79;25572;-81
2022/03/02 05:47:20;;;;;;;;;;;;;;;-5.54;66.89;97986.83;1732950;80;25615;-81
2022/03/02 05:49:50;;;;;;;124.12;53.85;;;;;;;-5.33;67.04;98018.00;1752329;81;26442;-82
2022/03/02 05:52:27;;;;;;;;;;;;;;;-5.33;66.93;98007.47;1789002;79;25434;-82
2022/03/02 05:54:55;;;;;;;125.95;56.88;;;;;;;-5.29;67.09;98019.47;1752285;81;25202;-81
2022/03/02 05:57:30;;;;;;;146.35;63.35;;;;;;;-5.28;67.07;98018.53;1749450;82;25890;-82
2022/03/02 06:00:06;;;;;;;143.28;63.70;;;;;;;-5.27;67.10;98021.53;1785621;79;25194;-82
2022/03/02 06:02:41;;;;;;;136.03;63.15;;;;;;;-5.25;67.27;98027.55;1753361;81;26180;-82
2022/03/02 06:05:17;;;;;;;124.50;59.65;;;;;;;-5.25;67.25;98025.77;1749312;80;25632;-84
2022/03/02 06:07:58;;;;;;;122.07;53.13;;;;;;;-5.23;67.30;98029.62;1784052;80;25481;-82
2022/03/02 06:10:30;;;;;;;114.00;53.23;;;;;;;-5.18;67.39;98032.78;1795269;79;25700;-82
2022/03/02 06:16:00;;;;;;;132.80;56.45;;;;;;;-5.09;67.33;98030.89;1778299;78;26370;-82
2022/03/02 06:18:36;;;;;;;131.25;56.65;;;;;;;-5.01;67.45;98029.91;1783338;78;25556;-82
2022/03/02 06:21:07;;;;;;;140.73;58.78;;;;;;;-5.00;67.37;98027.66;1826407;78;25439;-82
2022/03/02 06:26:12;;;;;;;151.70;65.97;;;;;;;-4.89;67.42;98019.89;1806065;78;25232;-82
2022/03/02 06:28:51;;;;;;;164.43;69.37;;;;;;;-4.84;67.35;98020.45;1697424;83;26229;-82
2022/03/02 06:31:28;;;;;;;142.35;63.20;;;;;;;-4.83;67.33;98022.11;1705624;78;25479;-81
2022/03/02 06:34:07;;;;;;;127.60;55.43;;;;;;;-4.75;67.42;98013.25;1781898;78;25933;-82
2022/03/02 06:36:52;;;;;;;128.62;54.55;;;;;;;-4.65;67.32;98015.27;1811159;78;25195;-81
2022/03/02 06:39:24;;;;;;;129.45;52.70;;;;;;;-4.61;67.20;98009.70;1824561;77;25171;-83
2022/03/02 06:42:30;;;;;;;125.20;55.40;;;;;;;-4.53;67.14;98014.44;1805842;78;25967;-82
2022/03/02 06:45:04;;;;;;;108.32;48.60;;;;;;;-4.46;67.06;98009.11;1826291;78;25441;-81
2022/03/02 06:47:44;;;;;;;105.92;45.48;;;;;;;-4.38;66.84;98017.37;1669026;83;25494;-83
2022/03/02 06:50:41;;;;;;;;;;;;;;;;;;;;;
2022/03/02 06:53:13;;;;;;;106.03;46.67;;;;;;;-4.32;66.65;98020.89;1704369;82;25246;-82
2022/03/02 06:55:43;;;;;;;86.25;36.60;;;;;;;-4.23;66.72;98022.08;1704313;82;27373;-83
2022/03/02 06:58:15;;;;;;;111.85;51.50;;;;;;;-4.17;66.74;98019.85;1703179;82;25299;-82
2022/03/02 07:00:54;;;;;;;120.55;52.93;;;;;;;-4.09;66.60;98020.16;1703919;82;25584;-83
2022/03/02 07:03:42;;;;;;;92.67;40.67;;;;;;;-4.06;66.48;98017.31;1705274;82;25480;-82
2022/03/02 07:06:14;;;;;;;121.92;55.50;;;;;;;-3.97;66.55;98020.26;1701386;81;25304;-82
2022/03/02 07:08:48;;;;;;;133.35;58.05;;;;;;;-3.92;66.37;98026.91;1695766;83;28031;-83
2022/03/02 07:11:18;;;;;;;120.33;52.93;;;;;;;-4.02;66.44;98004.77;1718722;81;25289;-83
2022/03/02 07:13:51;;;;;;;114.60;51.28;;;;;;;-3.78;66.59;98028.59;1674835;83;25251;-83
2022/03/02 07:16:28;;;;;;;115.05;50.50;;;;;;;-3.74;66.32;98028.73;1688593;83;25711;-83
2022/03/02 07:18:59;;;;;;;104.23;43.42;;;;;;;-3.73;66.21;98030.42;1697711;82;25182;-84
2022/03/02 07:21:33;;;;;;;99.77;42.93;;;;;;;-3.67;66.16;98028.20;1686871;82;28360;-84
2022/03/02 07:24:21;;;;;;;92.45;39.50;;;;;;;-3.61;65.95;98022.95;1694720;83;25522;-84
2022/03/02 07:27:00;;;;;;;106.27;48.30;;;;;;;-3.52;65.93;98030.24;1641278;85;25475;-83
2022/03/02 07:29:31;;;;;;;110.28;50.05;;;;;;;-3.42;66.05;98024.67;1661025;84;26183;-83
2022/03/02 07:32:04;;;;;;;123.28;54.93;;;;;;;-3.32;65.85;98021.73;1661516;84;25233;-84
2022/03/02 07:34:50;;;;;;;142.03;65.95;;;;;;;-3.22;65.72;98025.02;1662150;84;27574;-83
2022/03/02 07:37:24;;;;;;;131.30;63.65;;;;;;;-3.12;65.60;98019.44;1662380;84;25283;-85
2022/03/02 07:39:52;;;;;;;145.82;69.62;;;;;;;-3.06;65.58;98020.33;1661062;84;25480;-87
2022/03/02 07:42:21;;;;;;;144.95;67.85;;;;;;;-3.02;65.49;98021.80;1661032;84;25694;-85
2022/03/02 07:44:56;;;;;;;132.40;62.00;;;;;;;-3.01;65.63;98019.50;1692353;83;25275;-84
2022/03/02 07:47:39;;;;;;;117.05;54.93;;;;;;;-2.92;65.78;98007.80;1711045;81;27396;-84
2022/03/02 07:50:48;;;;;;;;;;;;;;;;;;;;;
2022/03/02 07:52:54;;;;;;;125.62;55.60;;;;;;;-2.68;65.39;98009.58;1678530;84;25476;-85
2022/03/02 07:55:27;;;;;;;127.25;58.78;;;;;;;-2.58;65.11;98006.13;1694001;82;25578;-86
2022/03/02 07:58:05;;;;;;;122.75;57.93;;;;;;;-2.58;64.99;98002.16;1758604;78;25251;-84
2022/03/02 08:00:54;;;;;;;117.75;55.60;;;;;;;-2.48;65.15;98004.11;1817940;78;25997;-84
2022/03/02 08:03:40;;;;;;;108.65;52.53;;;;;;;-2.33;65.07;98000.31;1816770;78;25162;-84
2022/03/02 08:06:10;;;;;;;116.37;53.60;;;;;;;-2.17;64.81;97994.19;1782489;79;25451;-87
2022/03/02 08:08:42;;;;;;;113.88;55.33;;;;;;;-1.93;64.67;97992.29;1813031;78;25692;-84
2022/03/02 08:11:35;;;;;;;88.12;40.88;;;;;;;-1.60;64.69;97991.95;1816796;78;25112;-84
2022/03/02 08:14:13;;;;;;;100.07;47.70;;;;;;;-1.31;64.01;97977.20;1810061;78;26233;-84
2022/03/02 08:17:02;;;;;;;87.40;42.13;;;;;;;-0.84;63.93;97977.78;1806217;78;25706;-84
2022/03/02 08:19:45;;;;;;;;;;;;;;;;;;;;;
2022/03/02 08:22:14;;;;;;;75.30;36.70;;;;;;;0.07;62.84;97981.15;1813548;79;25531;-82
2022/03/02 08:25:06;;;;;;;67.82;34.38;;;;;;;0.40;62.30;97978.70;1780428;79;25231;-82
2022/03/02 08:27:48;;;;;;;69.07;33.30;;;;;;;0.72;61.65;97981.53;1808522;79;26189;-83
2022/03/02 08:30:21;;;;;;;64.55;33.28;;;;;;;0.88;61.08;97957.09;1734179;81;25654;-82
2022/03/02 08:32:52;;;;;;;72.60;35.83;;;;;;;1.15;60.52;97976.38;1668949;83;25691;-82
2022/03/02 08:35:27;;;;;;;72.82;36.77;;;;;;;1.15;59.84;97979.03;1735007;80;26070;-82
2022/03/02 08:38:10;;;;;;;79.03;39.67;;;;;;;1.11;59.81;97974.12;1748980;80;25561;-82
2022/03/02 08:40:44;;;;;;;73.33;38.00;;;;;;;1.18;59.76;97967.28;1743532;80;25589;-82
2022/03/02 08:43:18;;;;;;;69.95;38.23;;;;;;;1.18;59.38;97962.81;1745616;80;25183;-82
2022/03/02 08:45:54;;;;;;;73.17;36.80;;;;;;;1.18;58.94;97963.30;1721652;82;25316;-82
2022/03/02 08:48:34;;;;;;;74.22;36.20;;;;;;;1.21;58.82;97956.38;1742422;82;25450;-82
2022/03/02 08:51:07;;;;;;;63.87;33.63;;;;;;;1.28;58.57;97950.83;1749995;81;25164;-83
2022/03/02 08:53:43;;;;;;;65.85;34.18;;;;;;;1.29;58.54;97945.87;1747819;80;27412;-83
2022/03/02 08:58:59;;;;;;;61.28;32.23;;;;;;;1.60;58.32;97935.89;1709021;82;25587;-82
2022/03/02 09:01:56;;;;;;;69.90;34.60;;;;;;;1.88;58.15;97926.17;1713001;83;25620;-82
2022/03/02 09:04:30;;;;;;;67.85;34.05;;;;;;;2.23;57.84;97928.98;1716962;82;25370;-83
2022/03/02 09:07:16;;;;;;;;;;;;;;;;;;;;;
2022/03/02 09:09:47;;;;;;;51.55;27.40;;;;;;;3.01;56.94;97915.58;1733655;79;25545;-83
2022/03/02 09:12:59;;;;;;;50.00;26.17;;;;;;;3.34;56.29;97912.71;1824741;78;25365;-83
2022/03/02 09:15:55;;;;;;;50.58;26.20;;;;;;;3.65;55.76;97907.77;1784870;79;25538;-84
2022/03/02 09:18:34;;;;;;;51.20;27.82;;;;;;;3.84;55.17;97903.59;1753313;80;25590;-84
2022/03/02 09:24:18;;;;;;;51.10;27.85;;;;;;;4.22;54.61;97891.62;1737564;81;25561;-85
2022/03/02 09:26:44;;;;;;;52.70;27.07;;;;;;;4.60;53.81;97890.74;1766459;80;25590;-84
2022/03/02 09:29:45;;;;;;;;;;;;;;;;;;;;;
2022/03/02 09:32:59;;;;;;;;;;;;;;;;;;;;;
2022/03/02 09:35:41;;;;;;;44.27;24.35;;;;;;;5.50;51.80;97864.96;1559168;91;25796;-84
2022/03/02 09:38:23;;;;;;;41.47;22.77;;;;;;;5.64;52.20;97867.80;1599094;88;25478;-84
2022/03/02 09:41:24;;;;;;;;;;;;;;;;;;;;;
2022/03/02 09:44:30;;;;;;;;;;;;;;;;;;;;;
2022/03/02 09:47:24;;;;;;;;;;;;;;;;;;;;;
2022/03/02 09:50:13;;;;;;;45.67;24.98;;;;;;;7.12;50.73;97852.31;1618651;87;27527;-84
2022/03/02 10:02:25;;;;;;;47.30;25.23;;;;;;;7.68;48.05;97842.11;1372619;101;25388;-85
2022/03/02 10:08:58;;;;;;;19.40;12.37;;;;;;;7.19;46.80;97830.44;1348862;101;25565;-83
2022/03/02 10:11:44;;;;;;;;;;;;;;;;;;;;;
2022/03/02 10:15:04;;;;;;;;;;;;;;;;;;;;;
2022/03/02 10:18:58;;;;;;;;;;;;;;;;;;;;;
2022/03/02 10:22:09;;;;;;;;;;;;;;;;;;;;;
2022/03/02 10:29:46;;;;;;;15.53;10.32;;;;;;;8.11;44.40;97809.04;1315537;107;25589;-83
2022/03/02 10:35:55;;;;;;;22.00;14.28;;;;;;;8.10;41.38;97796.61;1251125;113;25417;-83
2022/03/02 10:38:54;;;;;;;;;;;;;;;;;;;;;
2022/03/02 10:45:49;;;;;;;31.55;19.00;;;;;;;8.49;43.02;97778.00;1291443;108;25507;-82
2022/03/02 10:49:16;;;;;;;29.23;18.17;;;;;;;8.43;43.05;97771.54;1299531;110;25575;-82
2022/03/02 10:55:12;;;;;;;32.10;18.65;;;;;;;8.81;42.78;97757.88;1302776;109;33163;-82
2022/03/02 10:57:50;;;;;;;;;;;;;;;8.92;42.24;97747.44;1318100;108;25418;-82
2022/03/02 11:00:36;;;;;;;26.77;17.00;;;;;;;9.19;41.13;97721.55;1358339;105;25764;-82
2022/03/02 11:06:42;;;;;;;;;;;;;;;;;;;;;
2022/03/02 11:09:52;;;;;;;;;;;;;;;;;;;;;
2022/03/02 11:12:34;;;;;;;24.57;14.58;;;;;;;9.39;40.55;97721.72;1348171;105;25466;-82
2022/03/02 11:15:11;;;;;;;27.27;16.23;;;;;;;9.56;40.89;97721.72;1381738;103;25694;-83
2022/03/02 11:18:19;;;;;;;;;;;;;;;;;;;;;
2022/03/02 11:21:08;;;;;;;25.97;15.43;;;;;;;10.09;40.69;97708.03;1394095;100;25635;-82
2022/03/02 11:24:38;;;;;;;;;;;;;;;;;;;;;
2022/03/02 11:27:06;;;;;;;25.43;16.12;;;;;;;10.65;40.21;97709.69;1398110;100;25540;-82
2022/03/02 11:29:58;;;;;;;;;;;;;;;;;;;;;
2022/03/02 11:33:02;;;;;;;24.25;14.68;;;;;;;10.49;38.34;97697.94;1429758;100;25571;-83
2022/03/02 11:36:00;;;;;;;;;;;;;;;;;;;;;
2022/03/02 11:39:02;;;;;;;17.62;11.05;;;;;;;10.74;38.52;97685.53;1475173;96;26303;-84
2022/03/02 11:42:00;;;;;;;16.05;11.22;;;;;;;10.91;39.07;97688.12;1487074;96;25278;-82
2022/03/02 11:44:52;;;;;;;;;;;;;;;;;;;;;
2022/03/02 11:50:57;;;;;;;19.00;11.50;;;;;;;11.46;37.73;97676.08;1535601;93;25513;-83
2022/03/02 11:54:03;;;;;;;16.75;11.38;;;;;;;11.63;37.48;97666.98;1541913;93;26021;-84
2022/03/02 11:56:54;;;;;;;18.17;12.25;;;;;;;12.09;36.66;97661.97;1530002;92;25219;-83
2022/03/02 11:59:42;;;;;;;;;;;;;;;;;;;;;
2022/03/02 12:02:36;;;;;;;21.70;13.50;;;;;;;12.58;36.64;97648.59;1521495;90;25480;-82
2022/03/02 12:05:20;;;;;;;22.50;13.93;;;;;;;12.63;35.72;97629.81;1576384;90;25635;-83
2022/03/02 12:08:23;;;;;;;19.35;13.25;;;;;;;12.67;35.87;97640.22;1485160;96;27812;-84
2022/03/02 12:11:12;;;;;;;19.65;12.95;;;;;;;12.62;35.71;97647.11;1464759;96;25658;-83
2022/03/02 12:14:04;;;;;;;20.90;13.60;;;;;;;12.46;35.79;97642.72;1452126;97;25547;-83
2022/03/02 12:17:16;;;;;;;22.02;14.78;;;;;;;12.34;34.49;97618.75;1415338;101;25459;-83
2022/03/02 12:19:58;;;;;;;20.40;13.85;;;;;;;12.03;34.68;97627.66;1400259;101;25582;-82
2022/03/02 12:22:41;;;;;;;20.68;12.82;;;;;;;11.90;35.79;97629.38;1413638;99;26518;-83
2022/03/02 12:28:29;;;;;;;18.98;13.25;;;;;;;11.79;34.82;97608.41;1387194;102;25346;-83
2022/03/02 12:35:10;;;;;;;;;;;;;;;;;;;;;
2022/03/02 12:40:31;;;;;;;;;;;;;;;;;;;;;
2022/03/02 12:43:29;;;;;;;;;;;;;;;;;;;;;
2022/03/02 12:46:16;;;;;;;21.85;13.98;;;;;;;11.66;35.17;97591.38;1370571;103;25522;-83
2022/03/02 12:49:17;;;;;;;23.22;14.98;;;;;;;11.63;35.07;97585.86;1356439;103;25663;-84
2022/03/02 12:52:07;;;;;;;22.70;14.43;;;;;;;11.71;34.56;97574.80;1352020;105;27472;-86
2022/03/02 12:54:47;;;;;;;27.05;15.15;;;;;;;11.74;34.76;97573.02;1353283;104;25317;-84
2022/03/02 12:57:49;;;;;;;22.10;14.33;;;;;;;11.45;34.88;97547.37;1348490;100;25683;-83
2022/03/02 13:00:17;;;;;;;21.52;14.23;;;;;;;10.97;34.82;97567.13;1412910;97;25648;-83
2022/03/02 13:03:06;;;;;;;22.98;14.55;;;;;;;11.09;35.19;97564.61;1410427;99;25453;-83
2022/03/02 13:06:03;;;;;;;;;;;;;;;;;;;;;
2022/03/02 13:12:11;;;;;;;;;;;;;;;;;;;;;
2022/03/02 13:14:38;;;;;;;19.95;13.68;;;;;;;12.11;34.60;97551.64;1428719;98;25782;-86
2022/03/02 13:17:31;;;;;;;19.95;13.30;;;;;;;11.97;33.81;97554.95;1370137;101;25623;-86
2022/03/02 13:20:47;;;;;;;20.10;14.05;;;;;;;11.99;34.70;97561.50;1412058;100;25917;-88
2022/03/02 13:23:46;;;;;;;23.18;14.47;;;;;;;12.12;33.74;97558.19;1400611;101;25277;-86
2022/03/02 13:26:20;;;;;;;20.00;14.50;;;;;;;11.87;33.94;97555.41;1420437;101;25613;-84
2022/03/02 13:29:29;;;;;;;22.77;14.20;;;;;;;11.76;34.68;97553.39;1393799;101;26256;-83
2022/03/02 13:32:08;;;;;;;23.42;13.93;;;;;;;11.89;34.45;97546.57;1424089;98;25371;-83
2022/03/02 13:35:16;;;;;;;26.57;15.75;;;;;;;12.05;33.71;97546.59;1428160;98;26004;-84
2022/03/02 13:38:32;;;;;;;;;;;;;;;;;;;;;
2022/03/02 13:40:56;;;;;;;30.85;19.25;;;;;;;12.12;34.18;97541.13;1442826;98;25643;-83
2022/03/02 13:43:34;;;;;;;24.75;15.70;;;;;;;12.35;33.87;97535.97;1482999;94;25781;-85
2022/03/02 13:46:36;;;;;;;23.57;14.65;;;;;;;12.37;33.54;97537.11;1477047;96;25352;-83
2022/03/02 13:49:04;;;;;;;25.95;15.68;;;;;;;12.12;33.53;97531.66;1470105;95;26127;-83
2022/03/02 13:51:59;;;;;;;23.98;14.75;;;;;;;12.16;33.97;97530.19;1422714;100;25347;-82
2022/03/02 13:54:50;;;;;;;20.27;13.98;;;;;;;12.23;33.99;97529.61;1373545;103;25320;-83
2022/03/02 13:57:51;;;;;;;21.35;14.90;;;;;;;12.31;33.64;97532.59;1367258;99;25705;-83
2022/03/02 14:01:07;;;;;;;;;;;;;;;;;;;;;
2022/03/02 14:04:33;;;;;;;20.50;14.45;;;;;;;11.76;33.31;97529.05;1333782;107;26102;-84
2022/03/02 14:07:35;;;;;;;;;;;;;;;;;;;;;
2022/03/02 14:10:19;;;;;;;23.67;16.07;;;;;;;10.61;33.78;97528.94;1360318;103;25735;-83
2022/03/02 14:13:24;;;;;;;27.17;14.40;;;;;;;10.37;33.60;97531.23;1377454;103;25468;-82
2022/03/02 14:16:21;;;;;;;24.45;14.07;;;;;;;10.01;33.86;97534.78;1367100;103;25337;-82
2022/03/02 14:19:37;;;;;;;24.30;14.30;;;;;;;9.53;34.18;97532.16;1342630;106;25775;-83
2022/03/02 14:22:41;;;;;;;21.60;15.03;;;;;;;9.30;34.29;97537.83;1346356;105;25738;-84
2022/03/02 14:25:34;;;;;;;;;;;;;;;;;;;;;
2022/03/02 14:28:10;;;;;;;24.10;13.08;;;;;;;9.18;35.33;97535.91;1403597;101;25493;-84
2022/03/02 14:30:49;;;;;;;21.52;12.75;;;;;;;9.15;34.87;97536.33;1388681;100;25431;-87